sensor_id;sensor_type;location;lat;lon;timestamp;P1;durP1;ratioP1;P2;durP2;ratioP2
11743;SDS011;5929;51.906;7.674;2022-11-04T00:00:30;6.88;;;3.70;;
11743;SDS011;5929;51.906;7.674;2022-11-04T00:02:59;7.20;;;3.55;;
11743;SDS011;5929;51.906;7.674;2022-11-04T00:05:25;7.85;;;3.85;;
11743;SDS011;5929;51.906;7.674;2022-11-04T00:07:52;7.78;;;3.70;;
11743;SDS011;5929;51.906;7.674;2022-11-04T00:10:36;6.63;;;4.30;;
11743;SDS011;5929;51.906;7.674;2022-11-04T00:13:17;8.63;;;4.60;;
11743;SDS011;5929;51.906;7.674;2022-11-04T00:15:46;9.00;;;4.90;;
11743;SDS011;5929;51.906;7.674;2022-11-04T00:18:40;6.03;;;3.80;;
11743;SDS011;5929;51.906;7.674;2022-11-04T00:21:07;7.57;;;3.75;;
11743;SDS011;5929;51.906;7.674;2022-11-04T00:23:50;5.85;;;3.05;;
11743;SDS011;5929;51.906;7.674;2022-11-04T00:26:35;7.22;;;3.80;;
11743;SDS011;5929;51.906;7.674;2022-11-04T00:29:19;6.55;;;3.25;;
11743;SDS011;5929;51.906;7.674;2022-11-04T00:31:46;5.60;;;2.58;;
11743;SDS011;5929;51.906;7.674;2022-11-04T00:34:31;6.18;;;3.03;;
11743;SDS011;5929;51.906;7.674;2022-11-04T00:36:58;5.20;;;3.40;;
11743;SDS011;5929;51.906;7.674;2022-11-04T00:39:27;5.45;;;3.08;;
11743;SDS011;5929;51.906;7.674;2022-11-04T00:41:54;5.25;;;3.38;;
11743;SDS011;5929;51.906;7.674;2022-11-04T00:44:20;6.22;;;3.67;;
11743;SDS011;5929;51.906;7.674;2022-11-04T00:46:47;6.43;;;4.00;;
11743;SDS011;5929;51.906;7.674;2022-11-04T00:49:14;6.30;;;4.25;;
11743;SDS011;5929;51.906;7.674;2022-11-04T00:51:42;6.70;;;4.20;;
11743;SDS011;5929;51.906;7.674;2022-11-04T00:54:09;6.50;;;4.38;;
11743;SDS011;5929;51.906;7.674;2022-11-04T00:56:36;7.18;;;4.70;;
11743;SDS011;5929;51.906;7.674;2022-11-04T00:59:03;7.47;;;4.45;;
11743;SDS011;5929;51.906;7.674;2022-11-04T01:01:32;5.80;;;3.63;;
11743;SDS011;5929;51.906;7.674;2022-11-04T01:03:59;6.25;;;3.90;;
11743;SDS011;5929;51.906;7.674;2022-11-04T01:06:26;7.18;;;3.60;;
11743;SDS011;5929;51.906;7.674;2022-11-04T01:08:57;6.40;;;3.40;;
11743;SDS011;5929;51.906;7.674;2022-11-04T01:11:29;6.15;;;3.00;;
11743;SDS011;5929;51.906;7.674;2022-11-04T01:13:56;7.18;;;3.53;;
11743;SDS011;5929;51.906;7.674;2022-11-04T01:16:23;7.63;;;3.22;;
11743;SDS011;5929;51.906;7.674;2022-11-04T01:18:52;7.88;;;3.78;;
11743;SDS011;5929;51.906;7.674;2022-11-04T01:21:19;7.18;;;3.83;;
11743;SDS011;5929;51.906;7.674;2022-11-04T01:23:46;6.22;;;3.80;;
11743;SDS011;5929;51.906;7.674;2022-11-04T01:26:15;6.05;;;3.47;;
11743;SDS011;5929;51.906;7.674;2022-11-04T01:28:43;7.43;;;3.83;;
11743;SDS011;5929;51.906;7.674;2022-11-04T01:31:11;6.32;;;3.67;;
11743;SDS011;5929;51.906;7.674;2022-11-04T01:33:39;5.80;;;3.35;;
11743;SDS011;5929;51.906;7.674;2022-11-04T01:36:06;7.30;;;3.85;;
11743;SDS011;5929;51.906;7.674;2022-11-04T01:38:34;6.53;;;3.78;;
11743;SDS011;5929;51.906;7.674;2022-11-04T01:41:04;7.75;;;4.45;;
11743;SDS011;5929;51.906;7.674;2022-11-04T01:43:47;8.45;;;4.18;;
11743;SDS011;5929;51.906;7.674;2022-11-04T01:46:18;7.03;;;4.97;;
11743;SDS011;5929;51.906;7.674;2022-11-04T01:48:52;6.85;;;5.07;;
11743;SDS011;5929;51.906;7.674;2022-11-04T01:51:25;7.38;;;4.63;;
11743;SDS011;5929;51.906;7.674;2022-11-04T01:53:53;7.35;;;4.60;;
11743;SDS011;5929;51.906;7.674;2022-11-04T01:56:21;6.68;;;4.80;;
11743;SDS011;5929;51.906;7.674;2022-11-04T01:58:53;7.03;;;4.45;;
11743;SDS011;5929;51.906;7.674;2022-11-04T02:01:22;6.95;;;4.88;;
11743;SDS011;5929;51.906;7.674;2022-11-04T02:03:50;7.38;;;4.95;;
11743;SDS011;5929;51.906;7.674;2022-11-04T02:06:21;7.13;;;4.65;;
11743;SDS011;5929;51.906;7.674;2022-11-04T02:08:48;8.20;;;4.53;;
11743;SDS011;5929;51.906;7.674;2022-11-04T02:11:15;8.65;;;4.68;;
11743;SDS011;5929;51.906;7.674;2022-11-04T02:13:57;9.00;;;4.35;;
11743;SDS011;5929;51.906;7.674;2022-11-04T02:16:26;6.53;;;4.35;;
11743;SDS011;5929;51.906;7.674;2022-11-04T02:19:05;7.03;;;4.35;;
11743;SDS011;5929;51.906;7.674;2022-11-04T02:22:01;6.50;;;4.22;;
11743;SDS011;5929;51.906;7.674;2022-11-04T02:24:55;9.20;;;4.57;;
11743;SDS011;5929;51.906;7.674;2022-11-04T02:27:36;7.97;;;4.63;;
11743;SDS011;5929;51.906;7.674;2022-11-04T02:30:15;8.32;;;4.93;;
11743;SDS011;5929;51.906;7.674;2022-11-04T02:32:49;8.32;;;5.25;;
11743;SDS011;5929;51.906;7.674;2022-11-04T02:35:38;10.98;;;5.18;;
11743;SDS011;5929;51.906;7.674;2022-11-04T02:38:13;6.75;;;5.03;;
11743;SDS011;5929;51.906;7.674;2022-11-04T02:40:59;9.95;;;5.20;;
11743;SDS011;5929;51.906;7.674;2022-11-04T02:43:34;7.85;;;5.60;;
11743;SDS011;5929;51.906;7.674;2022-11-04T02:46:09;9.60;;;6.10;;
11743;SDS011;5929;51.906;7.674;2022-11-04T02:48:45;9.75;;;5.95;;
11743;SDS011;5929;51.906;7.674;2022-11-04T02:51:15;8.32;;;5.75;;
11743;SDS011;5929;51.906;7.674;2022-11-04T02:53:45;8.57;;;5.78;;
11743;SDS011;5929;51.906;7.674;2022-11-04T02:56:17;10.27;;;6.05;;
11743;SDS011;5929;51.906;7.674;2022-11-04T02:58:50;7.68;;;5.63;;
11743;SDS011;5929;51.906;7.674;2022-11-04T03:01:22;8.27;;;6.13;;
11743;SDS011;5929;51.906;7.674;2022-11-04T03:03:55;10.55;;;6.93;;
11743;SDS011;5929;51.906;7.674;2022-11-04T03:06:30;9.07;;;6.65;;
11743;SDS011;5929;51.906;7.674;2022-11-04T03:08:59;9.75;;;7.50;;
11743;SDS011;5929;51.906;7.674;2022-11-04T03:11:27;12.18;;;8.15;;
11743;SDS011;5929;51.906;7.674;2022-11-04T03:13:56;9.27;;;7.38;;
11743;SDS011;5929;51.906;7.674;2022-11-04T03:16:31;8.80;;;7.28;;
11743;SDS011;5929;51.906;7.674;2022-11-04T03:19:04;11.60;;;7.85;;
11743;SDS011;5929;51.906;7.674;2022-11-04T03:21:39;9.82;;;7.75;;
11743;SDS011;5929;51.906;7.674;2022-11-04T03:24:10;9.32;;;7.93;;
11743;SDS011;5929;51.906;7.674;2022-11-04T03:26:38;10.20;;;7.95;;
11743;SDS011;5929;51.906;7.674;2022-11-04T03:29:16;10.05;;;7.90;;
11743;SDS011;5929;51.906;7.674;2022-11-04T03:31:51;12.32;;;8.80;;
11743;SDS011;5929;51.906;7.674;2022-11-04T03:34:27;10.80;;;8.27;;
11743;SDS011;5929;51.906;7.674;2022-11-04T03:36:55;11.32;;;8.73;;
11743;SDS011;5929;51.906;7.674;2022-11-04T03:39:22;12.40;;;9.38;;
11743;SDS011;5929;51.906;7.674;2022-11-04T03:41:51;13.10;;;9.07;;
11743;SDS011;5929;51.906;7.674;2022-11-04T03:44:20;10.45;;;8.80;;
11743;SDS011;5929;51.906;7.674;2022-11-04T03:46:49;13.05;;;9.70;;
11743;SDS011;5929;51.906;7.674;2022-11-04T03:49:17;12.63;;;9.25;;
11743;SDS011;5929;51.906;7.674;2022-11-04T03:51:45;13.32;;;10.48;;
11743;SDS011;5929;51.906;7.674;2022-11-04T03:54:12;14.30;;;10.82;;
11743;SDS011;5929;51.906;7.674;2022-11-04T03:56:44;14.52;;;10.63;;
11743;SDS011;5929;51.906;7.674;2022-11-04T04:02:16;11.75;;;9.52;;
11743;SDS011;5929;51.906;7.674;2022-11-04T04:04:48;12.13;;;9.00;;
11743;SDS011;5929;51.906;7.674;2022-11-04T04:07:22;11.82;;;8.65;;
11743;SDS011;5929;51.906;7.674;2022-11-04T04:09:56;12.23;;;7.97;;
11743;SDS011;5929;51.906;7.674;2022-11-04T04:12:29;11.40;;;8.23;;
11743;SDS011;5929;51.906;7.674;2022-11-04T04:15:06;12.77;;;8.23;;
11743;SDS011;5929;51.906;7.674;2022-11-04T04:17:38;11.65;;;8.00;;
11743;SDS011;5929;51.906;7.674;2022-11-04T04:20:12;11.38;;;7.80;;
11743;SDS011;5929;51.906;7.674;2022-11-04T04:22:43;11.07;;;8.23;;
11743;SDS011;5929;51.906;7.674;2022-11-04T04:25:14;11.18;;;7.57;;
11743;SDS011;5929;51.906;7.674;2022-11-04T04:28:00;12.15;;;7.72;;
11743;SDS011;5929;51.906;7.674;2022-11-04T04:30:29;9.15;;;6.82;;
11743;SDS011;5929;51.906;7.674;2022-11-04T04:32:58;11.93;;;7.03;;
11743;SDS011;5929;51.906;7.674;2022-11-04T04:35:32;13.50;;;7.15;;
11743;SDS011;5929;51.906;7.674;2022-11-04T04:38:16;12.90;;;8.15;;
11743;SDS011;5929;51.906;7.674;2022-11-04T04:41:17;12.32;;;8.18;;
11743;SDS011;5929;51.906;7.674;2022-11-04T04:44:04;12.43;;;8.15;;
11743;SDS011;5929;51.906;7.674;2022-11-04T04:46:56;13.32;;;8.23;;
11743;SDS011;5929;51.906;7.674;2022-11-04T04:49:25;14.05;;;6.80;;
11743;SDS011;5929;51.906;7.674;2022-11-04T04:51:59;13.20;;;7.55;;
11743;SDS011;5929;51.906;7.674;2022-11-04T04:54:26;12.80;;;6.45;;
11743;SDS011;5929;51.906;7.674;2022-11-04T04:56:53;12.07;;;6.60;;
11743;SDS011;5929;51.906;7.674;2022-11-04T04:59:20;10.52;;;6.00;;
11743;SDS011;5929;51.906;7.674;2022-11-04T05:01:47;9.57;;;5.60;;
11743;SDS011;5929;51.906;7.674;2022-11-04T05:04:14;11.57;;;5.93;;
11743;SDS011;5929;51.906;7.674;2022-11-04T05:06:42;10.80;;;5.60;;
11743;SDS011;5929;51.906;7.674;2022-11-04T05:09:09;10.02;;;5.25;;
11743;SDS011;5929;51.906;7.674;2022-11-04T05:11:36;8.65;;;5.30;;
11743;SDS011;5929;51.906;7.674;2022-11-04T05:14:05;11.38;;;4.85;;
11743;SDS011;5929;51.906;7.674;2022-11-04T05:16:35;9.75;;;5.20;;
11743;SDS011;5929;51.906;7.674;2022-11-04T05:19:01;9.82;;;5.00;;
11743;SDS011;5929;51.906;7.674;2022-11-04T05:21:28;13.30;;;5.97;;
11743;SDS011;5929;51.906;7.674;2022-11-04T05:23:56;13.65;;;5.80;;
11743;SDS011;5929;51.906;7.674;2022-11-04T05:26:25;8.88;;;4.80;;
11743;SDS011;5929;51.906;7.674;2022-11-04T05:28:52;10.77;;;5.60;;
11743;SDS011;5929;51.906;7.674;2022-11-04T05:31:19;9.98;;;5.10;;
11743;SDS011;5929;51.906;7.674;2022-11-04T05:33:46;11.52;;;5.03;;
11743;SDS011;5929;51.906;7.674;2022-11-04T05:36:13;11.30;;;4.78;;
11743;SDS011;5929;51.906;7.674;2022-11-04T05:38:42;8.13;;;4.63;;
11743;SDS011;5929;51.906;7.674;2022-11-04T05:41:10;10.60;;;4.95;;
11743;SDS011;5929;51.906;7.674;2022-11-04T05:43:50;11.00;;;5.45;;
11743;SDS011;5929;51.906;7.674;2022-11-04T05:46:17;10.77;;;4.82;;
11743;SDS011;5929;51.906;7.674;2022-11-04T05:48:43;10.40;;;5.10;;
11743;SDS011;5929;51.906;7.674;2022-11-04T05:51:11;9.00;;;5.35;;
11743;SDS011;5929;51.906;7.674;2022-11-04T05:53:39;9.65;;;5.28;;
11743;SDS011;5929;51.906;7.674;2022-11-04T05:56:06;12.68;;;5.10;;
11743;SDS011;5929;51.906;7.674;2022-11-04T05:58:34;15.45;;;5.53;;
11743;SDS011;5929;51.906;7.674;2022-11-04T06:01:11;14.48;;;5.95;;
11743;SDS011;5929;51.906;7.674;2022-11-04T06:03:39;11.82;;;5.15;;
11743;SDS011;5929;51.906;7.674;2022-11-04T06:06:06;13.18;;;5.35;;
11743;SDS011;5929;51.906;7.674;2022-11-04T06:08:33;15.32;;;5.50;;
11743;SDS011;5929;51.906;7.674;2022-11-04T06:10:59;16.35;;;5.90;;
11743;SDS011;5929;51.906;7.674;2022-11-04T06:13:29;20.17;;;6.55;;
11743;SDS011;5929;51.906;7.674;2022-11-04T06:15:57;12.77;;;6.18;;
11743;SDS011;5929;51.906;7.674;2022-11-04T06:18:24;10.65;;;5.80;;
11743;SDS011;5929;51.906;7.674;2022-11-04T06:21:04;12.15;;;6.28;;
11743;SDS011;5929;51.906;7.674;2022-11-04T06:23:32;15.68;;;6.03;;
11743;SDS011;5929;51.906;7.674;2022-11-04T06:25:59;14.15;;;6.55;;
11743;SDS011;5929;51.906;7.674;2022-11-04T06:28:28;13.93;;;5.80;;
11743;SDS011;5929;51.906;7.674;2022-11-04T06:30:55;13.70;;;6.22;;
11743;SDS011;5929;51.906;7.674;2022-11-04T06:33:24;10.95;;;5.35;;
11743;SDS011;5929;51.906;7.674;2022-11-04T06:35:55;10.52;;;5.78;;
11743;SDS011;5929;51.906;7.674;2022-11-04T06:38:22;14.77;;;5.43;;
11743;SDS011;5929;51.906;7.674;2022-11-04T06:40:50;13.95;;;5.90;;
11743;SDS011;5929;51.906;7.674;2022-11-04T06:43:17;14.25;;;6.20;;
11743;SDS011;5929;51.906;7.674;2022-11-04T06:45:43;14.48;;;5.00;;
11743;SDS011;5929;51.906;7.674;2022-11-04T06:48:19;10.57;;;5.57;;
11743;SDS011;5929;51.906;7.674;2022-11-04T06:50:46;12.27;;;5.80;;
11743;SDS011;5929;51.906;7.674;2022-11-04T06:53:15;13.88;;;5.22;;
11743;SDS011;5929;51.906;7.674;2022-11-04T06:55:41;12.00;;;5.38;;
11743;SDS011;5929;51.906;7.674;2022-11-04T06:58:09;9.95;;;5.50;;
11743;SDS011;5929;51.906;7.674;2022-11-04T07:00:38;13.23;;;5.60;;
11743;SDS011;5929;51.906;7.674;2022-11-04T07:03:05;13.95;;;5.40;;
11743;SDS011;5929;51.906;7.674;2022-11-04T07:05:33;11.45;;;5.07;;
11743;SDS011;5929;51.906;7.674;2022-11-04T07:08:00;14.73;;;5.45;;
11743;SDS011;5929;51.906;7.674;2022-11-04T07:10:27;11.85;;;5.32;;
11743;SDS011;5929;51.906;7.674;2022-11-04T07:12:54;13.93;;;4.82;;
11743;SDS011;5929;51.906;7.674;2022-11-04T07:15:21;12.82;;;5.40;;
11743;SDS011;5929;51.906;7.674;2022-11-04T07:17:47;13.68;;;4.75;;
11743;SDS011;5929;51.906;7.674;2022-11-04T07:20:14;10.90;;;4.47;;
11743;SDS011;5929;51.906;7.674;2022-11-04T07:22:42;11.35;;;4.82;;
11743;SDS011;5929;51.906;7.674;2022-11-04T07:25:09;13.15;;;4.35;;
11743;SDS011;5929;51.906;7.674;2022-11-04T07:27:36;12.38;;;3.88;;
11743;SDS011;5929;51.906;7.674;2022-11-04T07:30:06;14.18;;;3.88;;
11743;SDS011;5929;51.906;7.674;2022-11-04T07:32:33;12.40;;;4.55;;
11743;SDS011;5929;51.906;7.674;2022-11-04T07:35:00;10.55;;;3.65;;
11743;SDS011;5929;51.906;7.674;2022-11-04T07:37:27;11.82;;;3.78;;
11743;SDS011;5929;51.906;7.674;2022-11-04T07:39:55;14.82;;;4.07;;
11743;SDS011;5929;51.906;7.674;2022-11-04T07:42:22;13.45;;;4.00;;
11743;SDS011;5929;51.906;7.674;2022-11-04T07:44:49;8.35;;;3.58;;
11743;SDS011;5929;51.906;7.674;2022-11-04T07:47:16;11.68;;;3.65;;
11743;SDS011;5929;51.906;7.674;2022-11-04T07:49:42;11.23;;;3.80;;
11743;SDS011;5929;51.906;7.674;2022-11-04T07:52:09;10.20;;;3.70;;
11743;SDS011;5929;51.906;7.674;2022-11-04T07:54:36;10.05;;;3.22;;
11743;SDS011;5929;51.906;7.674;2022-11-04T07:57:07;11.50;;;3.50;;
11743;SDS011;5929;51.906;7.674;2022-11-04T07:59:33;9.80;;;3.17;;
11743;SDS011;5929;51.906;7.674;2022-11-04T08:02:00;10.13;;;3.15;;
11743;SDS011;5929;51.906;7.674;2022-11-04T08:04:27;12.68;;;2.92;;
11743;SDS011;5929;51.906;7.674;2022-11-04T08:06:54;11.10;;;3.25;;
11743;SDS011;5929;51.906;7.674;2022-11-04T08:09:21;9.85;;;2.97;;
11743;SDS011;5929;51.906;7.674;2022-11-04T08:11:48;9.52;;;3.40;;
11743;SDS011;5929;51.906;7.674;2022-11-04T08:14:16;10.18;;;2.92;;
11743;SDS011;5929;51.906;7.674;2022-11-04T08:16:43;12.32;;;3.05;;
11743;SDS011;5929;51.906;7.674;2022-11-04T08:19:10;12.80;;;3.20;;
11743;SDS011;5929;51.906;7.674;2022-11-04T08:21:37;9.35;;;2.67;;
11743;SDS011;5929;51.906;7.674;2022-11-04T08:24:04;14.27;;;3.95;;
11743;SDS011;5929;51.906;7.674;2022-11-04T08:26:31;7.90;;;2.33;;
11743;SDS011;5929;51.906;7.674;2022-11-04T08:28:58;12.20;;;2.78;;
11743;SDS011;5929;51.906;7.674;2022-11-04T08:31:28;11.85;;;2.97;;
11743;SDS011;5929;51.906;7.674;2022-11-04T08:33:57;13.98;;;3.13;;
11743;SDS011;5929;51.906;7.674;2022-11-04T08:36:25;13.30;;;3.38;;
11743;SDS011;5929;51.906;7.674;2022-11-04T08:38:54;10.05;;;3.30;;
11743;SDS011;5929;51.906;7.674;2022-11-04T08:41:23;10.77;;;3.00;;
11743;SDS011;5929;51.906;7.674;2022-11-04T08:43:51;8.20;;;3.15;;
11743;SDS011;5929;51.906;7.674;2022-11-04T08:46:17;10.63;;;3.30;;
11743;SDS011;5929;51.906;7.674;2022-11-04T08:48:48;9.88;;;3.30;;
11743;SDS011;5929;51.906;7.674;2022-11-04T08:51:17;8.82;;;2.88;;
11743;SDS011;5929;51.906;7.674;2022-11-04T08:53:46;11.18;;;2.97;;
11743;SDS011;5929;51.906;7.674;2022-11-04T08:56:14;9.30;;;2.83;;
11743;SDS011;5929;51.906;7.674;2022-11-04T08:58:42;10.63;;;2.83;;
11743;SDS011;5929;51.906;7.674;2022-11-04T09:01:09;8.40;;;2.63;;
11743;SDS011;5929;51.906;7.674;2022-11-04T09:03:37;11.23;;;2.83;;
11743;SDS011;5929;51.906;7.674;2022-11-04T09:06:07;12.13;;;3.58;;
11743;SDS011;5929;51.906;7.674;2022-11-04T09:08:36;9.75;;;2.95;;
11743;SDS011;5929;51.906;7.674;2022-11-04T09:11:05;13.85;;;3.05;;
11743;SDS011;5929;51.906;7.674;2022-11-04T09:13:32;12.35;;;2.78;;
11743;SDS011;5929;51.906;7.674;2022-11-04T09:15:59;10.45;;;2.90;;
11743;SDS011;5929;51.906;7.674;2022-11-04T09:18:26;9.57;;;2.72;;
11743;SDS011;5929;51.906;7.674;2022-11-04T09:20:53;11.57;;;2.83;;
11743;SDS011;5929;51.906;7.674;2022-11-04T09:23:21;13.15;;;3.22;;
11743;SDS011;5929;51.906;7.674;2022-11-04T09:25:48;8.65;;;2.80;;
11743;SDS011;5929;51.906;7.674;2022-11-04T09:28:17;13.88;;;3.70;;
11743;SDS011;5929;51.906;7.674;2022-11-04T09:30:44;9.52;;;3.22;;
11743;SDS011;5929;51.906;7.674;2022-11-04T09:33:10;12.70;;;3.00;;
11743;SDS011;5929;51.906;7.674;2022-11-04T09:35:37;10.00;;;3.28;;
11743;SDS011;5929;51.906;7.674;2022-11-04T09:38:04;8.77;;;3.10;;
11743;SDS011;5929;51.906;7.674;2022-11-04T09:40:33;13.65;;;3.50;;
11743;SDS011;5929;51.906;7.674;2022-11-04T09:43:08;9.77;;;2.75;;
11743;SDS011;5929;51.906;7.674;2022-11-04T09:45:45;10.38;;;3.03;;
11743;SDS011;5929;51.906;7.674;2022-11-04T09:48:15;10.40;;;2.75;;
11743;SDS011;5929;51.906;7.674;2022-11-04T09:50:51;12.00;;;3.30;;
11743;SDS011;5929;51.906;7.674;2022-11-04T09:53:21;11.63;;;3.42;;
11743;SDS011;5929;51.906;7.674;2022-11-04T09:55:53;13.05;;;3.95;;
11743;SDS011;5929;51.906;7.674;2022-11-04T09:58:23;15.02;;;3.28;;
11743;SDS011;5929;51.906;7.674;2022-11-04T10:00:51;12.77;;;3.40;;
11743;SDS011;5929;51.906;7.674;2022-11-04T10:03:34;10.27;;;3.03;;
11743;SDS011;5929;51.906;7.674;2022-11-04T10:06:19;13.80;;;3.88;;
11743;SDS011;5929;51.906;7.674;2022-11-04T10:09:03;10.52;;;2.75;;
11743;SDS011;5929;51.906;7.674;2022-11-04T10:11:40;12.68;;;3.10;;
11743;SDS011;5929;51.906;7.674;2022-11-04T10:14:21;11.70;;;2.90;;
11743;SDS011;5929;51.906;7.674;2022-11-04T10:17:12;13.05;;;3.15;;
11743;SDS011;5929;51.906;7.674;2022-11-04T10:19:58;11.90;;;3.30;;
11743;SDS011;5929;51.906;7.674;2022-11-04T10:22:37;11.00;;;3.40;;
11743;SDS011;5929;51.906;7.674;2022-11-04T10:25:12;10.02;;;2.65;;
11743;SDS011;5929;51.906;7.674;2022-11-04T10:27:43;10.05;;;3.00;;
11743;SDS011;5929;51.906;7.674;2022-11-04T10:30:15;12.35;;;3.92;;
11743;SDS011;5929;51.906;7.674;2022-11-04T10:32:48;12.80;;;3.28;;
11743;SDS011;5929;51.906;7.674;2022-11-04T10:35:28;13.70;;;3.85;;
11743;SDS011;5929;51.906;7.674;2022-11-04T10:37:57;9.00;;;3.60;;
11743;SDS011;5929;51.906;7.674;2022-11-04T10:40:32;14.15;;;4.28;;
11743;SDS011;5929;51.906;7.674;2022-11-04T10:43:06;13.55;;;4.38;;
11743;SDS011;5929;51.906;7.674;2022-11-04T10:45:40;12.10;;;3.75;;
11743;SDS011;5929;51.906;7.674;2022-11-04T10:48:15;8.30;;;2.88;;
11743;SDS011;5929;51.906;7.674;2022-11-04T10:50:48;11.15;;;2.97;;
11743;SDS011;5929;51.906;7.674;2022-11-04T10:53:19;12.30;;;3.22;;
11743;SDS011;5929;51.906;7.674;2022-11-04T10:55:51;10.88;;;3.75;;
11743;SDS011;5929;51.906;7.674;2022-11-04T10:58:26;9.52;;;2.40;;
11743;SDS011;5929;51.906;7.674;2022-11-04T11:00:57;11.23;;;2.92;;
11743;SDS011;5929;51.906;7.674;2022-11-04T11:03:28;13.02;;;3.00;;
11743;SDS011;5929;51.906;7.674;2022-11-04T11:06:09;7.38;;;2.22;;
11743;SDS011;5929;51.906;7.674;2022-11-04T11:08:43;9.98;;;3.15;;
11743;SDS011;5929;51.906;7.674;2022-11-04T11:11:10;8.38;;;2.35;;
11743;SDS011;5929;51.906;7.674;2022-11-04T11:13:41;9.45;;;2.53;;
11743;SDS011;5929;51.906;7.674;2022-11-04T11:16:10;10.02;;;2.53;;
11743;SDS011;5929;51.906;7.674;2022-11-04T11:18:38;11.20;;;2.85;;
11743;SDS011;5929;51.906;7.674;2022-11-04T11:21:07;10.88;;;2.85;;
11743;SDS011;5929;51.906;7.674;2022-11-04T11:23:38;9.75;;;2.70;;
11743;SDS011;5929;51.906;7.674;2022-11-04T11:26:12;11.65;;;2.50;;
11743;SDS011;5929;51.906;7.674;2022-11-04T11:28:45;9.13;;;2.35;;
11743;SDS011;5929;51.906;7.674;2022-11-04T11:31:14;10.48;;;2.83;;
11743;SDS011;5929;51.906;7.674;2022-11-04T11:33:50;11.27;;;2.42;;
11743;SDS011;5929;51.906;7.674;2022-11-04T11:36:20;10.80;;;2.40;;
11743;SDS011;5929;51.906;7.674;2022-11-04T11:39:00;11.68;;;2.60;;
11743;SDS011;5929;51.906;7.674;2022-11-04T11:41:30;10.23;;;2.72;;
11743;SDS011;5929;51.906;7.674;2022-11-04T11:44:00;9.90;;;2.88;;
11743;SDS011;5929;51.906;7.674;2022-11-04T11:46:29;7.22;;;2.80;;
11743;SDS011;5929;51.906;7.674;2022-11-04T11:48:59;11.02;;;3.00;;
11743;SDS011;5929;51.906;7.674;2022-11-04T11:51:28;7.70;;;3.00;;
11743;SDS011;5929;51.906;7.674;2022-11-04T11:54:00;10.63;;;2.90;;
11743;SDS011;5929;51.906;7.674;2022-11-04T11:56:38;13.02;;;3.22;;
11743;SDS011;5929;51.906;7.674;2022-11-04T11:59:12;11.43;;;3.17;;
11743;SDS011;5929;51.906;7.674;2022-11-04T12:01:46;11.57;;;2.90;;
11743;SDS011;5929;51.906;7.674;2022-11-04T12:04:16;12.07;;;3.25;;
11743;SDS011;5929;51.906;7.674;2022-11-04T12:06:46;10.43;;;3.03;;
11743;SDS011;5929;51.906;7.674;2022-11-04T12:09:22;8.57;;;2.50;;
11743;SDS011;5929;51.906;7.674;2022-11-04T12:12:00;6.90;;;2.60;;
11743;SDS011;5929;51.906;7.674;2022-11-04T12:14:42;7.22;;;2.40;;
11743;SDS011;5929;51.906;7.674;2022-11-04T12:17:21;9.07;;;2.35;;
11743;SDS011;5929;51.906;7.674;2022-11-04T12:19:58;9.45;;;2.10;;
11743;SDS011;5929;51.906;7.674;2022-11-04T12:22:43;10.30;;;2.33;;
11743;SDS011;5929;51.906;7.674;2022-11-04T12:25:19;8.18;;;1.83;;
11743;SDS011;5929;51.906;7.674;2022-11-04T12:27:50;8.73;;;2.00;;
11743;SDS011;5929;51.906;7.674;2022-11-04T12:30:25;9.57;;;2.33;;
11743;SDS011;5929;51.906;7.674;2022-11-04T12:32:59;7.75;;;2.10;;
11743;SDS011;5929;51.906;7.674;2022-11-04T12:35:44;7.10;;;2.20;;
11743;SDS011;5929;51.906;7.674;2022-11-04T12:38:23;9.02;;;2.05;;
11743;SDS011;5929;51.906;7.674;2022-11-04T12:41:08;9.05;;;2.20;;
11743;SDS011;5929;51.906;7.674;2022-11-04T12:43:44;6.97;;;2.10;;
11743;SDS011;5929;51.906;7.674;2022-11-04T12:46:18;7.85;;;2.30;;
11743;SDS011;5929;51.906;7.674;2022-11-04T12:48:55;9.25;;;1.90;;
11743;SDS011;5929;51.906;7.674;2022-11-04T12:51:46;8.82;;;2.42;;
11743;SDS011;5929;51.906;7.674;2022-11-04T12:54:24;9.40;;;1.90;;
11743;SDS011;5929;51.906;7.674;2022-11-04T12:57:08;8.25;;;2.20;;
11743;SDS011;5929;51.906;7.674;2022-11-04T12:59:49;9.85;;;2.13;;
11743;SDS011;5929;51.906;7.674;2022-11-04T13:02:28;8.60;;;1.88;;
11743;SDS011;5929;51.906;7.674;2022-11-04T13:05:02;8.98;;;2.35;;
11743;SDS011;5929;51.906;7.674;2022-11-04T13:07:32;10.55;;;2.13;;
11743;SDS011;5929;51.906;7.674;2022-11-04T13:10:05;11.65;;;3.05;;
11743;SDS011;5929;51.906;7.674;2022-11-04T13:12:38;15.90;;;2.85;;
11743;SDS011;5929;51.906;7.674;2022-11-04T13:15:12;8.48;;;2.53;;
11743;SDS011;5929;51.906;7.674;2022-11-04T13:17:43;10.35;;;2.10;;
11743;SDS011;5929;51.906;7.674;2022-11-04T13:20:13;11.65;;;3.22;;
11743;SDS011;5929;51.906;7.674;2022-11-04T13:22:48;10.93;;;2.33;;
11743;SDS011;5929;51.906;7.674;2022-11-04T13:25:18;10.15;;;2.40;;
11743;SDS011;5929;51.906;7.674;2022-11-04T13:27:53;9.00;;;2.20;;
11743;SDS011;5929;51.906;7.674;2022-11-04T13:30:22;10.50;;;2.58;;
11743;SDS011;5929;51.906;7.674;2022-11-04T13:32:58;13.48;;;2.25;;
11743;SDS011;5929;51.906;7.674;2022-11-04T13:35:32;9.95;;;2.83;;
11743;SDS011;5929;51.906;7.674;2022-11-04T13:38:06;8.35;;;2.67;;
11743;SDS011;5929;51.906;7.674;2022-11-04T13:40:40;11.77;;;2.95;;
11743;SDS011;5929;51.906;7.674;2022-11-04T13:43:21;12.23;;;3.50;;
11743;SDS011;5929;51.906;7.674;2022-11-04T13:46:04;10.88;;;2.80;;
11743;SDS011;5929;51.906;7.674;2022-11-04T13:48:50;11.73;;;3.40;;
11743;SDS011;5929;51.906;7.674;2022-11-04T13:51:22;10.82;;;3.25;;
11743;SDS011;5929;51.906;7.674;2022-11-04T13:53:58;12.25;;;3.70;;
11743;SDS011;5929;51.906;7.674;2022-11-04T13:56:26;7.88;;;3.47;;
11743;SDS011;5929;51.906;7.674;2022-11-04T13:58:55;11.70;;;3.90;;
11743;SDS011;5929;51.906;7.674;2022-11-04T14:01:28;12.68;;;3.45;;
11743;SDS011;5929;51.906;7.674;2022-11-04T14:30:11;12.45;;;4.05;;
11743;SDS011;5929;51.906;7.674;2022-11-04T14:32:54;9.07;;;4.38;;
11743;SDS011;5929;51.906;7.674;2022-11-04T14:35:24;10.40;;;4.00;;
11743;SDS011;5929;51.906;7.674;2022-11-04T14:37:53;14.02;;;3.95;;
11743;SDS011;5929;51.906;7.674;2022-11-04T14:40:24;10.02;;;3.40;;
11743;SDS011;5929;51.906;7.674;2022-11-04T14:42:53;12.80;;;3.80;;
11743;SDS011;5929;51.906;7.674;2022-11-04T14:45:23;14.05;;;3.88;;
11743;SDS011;5929;51.906;7.674;2022-11-04T14:47:54;11.00;;;2.97;;
11743;SDS011;5929;51.906;7.674;2022-11-04T14:50:23;10.35;;;3.00;;
11743;SDS011;5929;51.906;7.674;2022-11-04T14:52:54;15.02;;;3.63;;
11743;SDS011;5929;51.906;7.674;2022-11-04T14:55:24;11.27;;;3.47;;
11743;SDS011;5929;51.906;7.674;2022-11-04T14:57:54;12.10;;;3.38;;
11743;SDS011;5929;51.906;7.674;2022-11-04T15:00:28;9.18;;;2.92;;
11743;SDS011;5929;51.906;7.674;2022-11-04T15:03:13;15.40;;;3.78;;
11743;SDS011;5929;51.906;7.674;2022-11-04T15:05:46;11.52;;;3.13;;
11743;SDS011;5929;51.906;7.674;2022-11-04T15:08:27;12.52;;;3.63;;
11743;SDS011;5929;51.906;7.674;2022-11-04T15:10:57;11.23;;;2.97;;
11743;SDS011;5929;51.906;7.674;2022-11-04T15:13:26;16.73;;;3.92;;
11743;SDS011;5929;51.906;7.674;2022-11-04T15:15:54;11.73;;;3.17;;
11743;SDS011;5929;51.906;7.674;2022-11-04T15:18:24;10.40;;;2.53;;
11743;SDS011;5929;51.906;7.674;2022-11-04T15:20:54;10.88;;;2.45;;
11743;SDS011;5929;51.906;7.674;2022-11-04T15:23:25;11.07;;;3.13;;
11743;SDS011;5929;51.906;7.674;2022-11-04T15:25:53;13.18;;;3.33;;
11743;SDS011;5929;51.906;7.674;2022-11-04T15:28:22;13.27;;;3.25;;
11743;SDS011;5929;51.906;7.674;2022-11-04T15:30:57;8.75;;;2.80;;
11743;SDS011;5929;51.906;7.674;2022-11-04T15:33:26;15.50;;;3.33;;
11743;SDS011;5929;51.906;7.674;2022-11-04T15:35:54;14.50;;;3.50;;
11743;SDS011;5929;51.906;7.674;2022-11-04T15:38:22;11.07;;;3.10;;
11743;SDS011;5929;51.906;7.674;2022-11-04T15:40:52;10.43;;;2.80;;
11743;SDS011;5929;51.906;7.674;2022-11-04T15:43:20;13.60;;;3.40;;
11743;SDS011;5929;51.906;7.674;2022-11-04T15:45:50;11.93;;;3.35;;
11743;SDS011;5929;51.906;7.674;2022-11-04T15:48:22;11.63;;;3.42;;